Terminal Aerodrome Forecast
Issued by NWS Charleston, SC

Home | Current Version | Previous Version | Text Only | Print | Product List | Glossary On
Versions: 1 2 3 4 5 6 7 8 9 10 11 12 13 14 15 16 17 18 19 20 21 22 23 24 25 26 27 28 29 30 31 32 33 34 35 36 37 38 39 40 41 42
220
FTUS42 KCHS 131558 AAB
TAFSAV
TAF AMD
KSAV 131558Z 1316/1412 03008KT 3SM SHRA BKN008 OVC012
      TEMPO 1316/1318 2SM +SHRA OVC004
     FM131800 VRB05KT 5SM SHRA BR OVC006
     FM132100 VRB05KT 3SM BR VCSH OVC005
     FM140600 23007KT 4SM SHRA BR BKN006 OVC012=

USA.gov is the U.S. government's official web portal to all federal, state and local government web resources and services.